createdAt,value
2022-10-20T00:02:05.311Z,6.22
2022-10-20T00:04:35.829Z,6.15
2022-10-20T00:07:09.277Z,5.05
2022-10-20T00:09:35.706Z,7.00
2022-10-20T00:12:02.055Z,5.75
2022-10-20T00:14:50.345Z,5.47
2022-10-20T00:17:24.024Z,4.55
2022-10-20T00:19:52.555Z,6.07
2022-10-20T00:22:18.999Z,7.97
2022-10-20T00:24:56.558Z,7.40
2022-10-20T00:27:22.930Z,6.15
2022-10-20T00:29:49.551Z,5.50
2022-10-20T00:32:15.921Z,5.75
2022-10-20T00:34:43.329Z,5.70
2022-10-20T00:37:27.117Z,5.22
2022-10-20T00:39:53.484Z,7.07
2022-10-20T00:42:20.172Z,4.13
2022-10-20T00:44:54.408Z,8.73
2022-10-20T00:47:43.561Z,5.17
2022-10-20T00:50:16.002Z,5.45
2022-10-20T00:52:45.399Z,7.15
2022-10-20T00:55:30.692Z,8.70
2022-10-20T00:58:01.148Z,6.22
2022-10-20T01:00:28.224Z,6.03
2022-10-20T01:02:58.026Z,5.13
2022-10-20T01:05:44.713Z,5.35
2022-10-20T01:08:21.293Z,6.25
2022-10-20T01:11:38.634Z,4.18
2022-10-20T01:14:26.341Z,6.73
2022-10-20T01:17:34.650Z,9.65
2022-10-20T01:20:23.745Z,5.45
2022-10-20T01:23:11.909Z,6.78
2022-10-20T01:26:01.214Z,5.63
2022-10-20T01:28:40.706Z,5.87
2022-10-20T01:31:37.392Z,5.30
2022-10-20T01:34:16.853Z,6.10
2022-10-20T01:36:51.256Z,4.63
2022-10-20T01:40:00.458Z,5.20
2022-10-20T01:42:40.906Z,7.00
2022-10-20T01:45:08.260Z,9.30
2022-10-20T01:47:36.868Z,6.72
2022-10-20T01:50:10.745Z,10.75
2022-10-20T01:53:07.239Z,6.65
2022-10-20T01:55:54.474Z,9.60
2022-10-20T01:59:01.705Z,6.97
2022-10-20T02:01:50.911Z,6.25
2022-10-20T02:04:30.253Z,6.70
2022-10-20T02:07:02.460Z,7.78
2022-10-20T02:12:25.282Z,8.02
2022-10-20T02:14:53.033Z,8.52
2022-10-20T02:17:20.393Z,6.38
2022-10-20T02:19:50.046Z,7.15
2022-10-20T02:22:17.436Z,8.20
2022-10-20T02:24:45.787Z,6.00
2022-10-20T02:27:19.938Z,5.50
2022-10-20T02:30:00.476Z,7.25
2022-10-20T02:32:28.629Z,6.68
2022-10-20T02:34:56.158Z,9.73
2022-10-20T02:37:31.909Z,6.60
2022-10-20T02:39:58.365Z,6.38
2022-10-20T02:42:25.866Z,7.05
2022-10-20T02:44:52.442Z,5.18
2022-10-20T02:47:21.010Z,6.43
2022-10-20T02:49:47.447Z,7.00
2022-10-20T02:52:18.997Z,7.65
2022-10-20T02:54:46.391Z,7.25
2022-10-20T02:57:26.772Z,7.10
2022-10-20T02:59:59.324Z,6.17
2022-10-20T03:02:25.709Z,8.00
2022-10-20T03:04:52.104Z,6.80
2022-10-20T03:07:19.342Z,7.03
2022-10-20T03:09:46.863Z,6.78
2022-10-20T03:12:22.501Z,6.77
2022-10-20T03:14:49.152Z,7.25
2022-10-20T03:17:32.970Z,7.00
2022-10-20T03:19:59.595Z,9.15
2022-10-20T03:22:45.398Z,6.35
2022-10-20T03:25:11.918Z,6.60
2022-10-20T03:27:38.676Z,7.18
2022-10-20T03:30:12.521Z,10.05
2022-10-20T03:32:44.084Z,6.55
2022-10-20T03:35:10.542Z,8.55
2022-10-20T03:37:36.998Z,6.20
2022-10-20T03:40:03.624Z,6.85
2022-10-20T03:42:29.960Z,6.53
2022-10-20T03:44:56.365Z,10.52
2022-10-20T03:47:41.080Z,8.10
2022-10-20T03:50:07.887Z,8.53
2022-10-20T03:52:47.898Z,8.02
2022-10-20T03:55:14.837Z,5.65
2022-10-20T03:58:03.117Z,9.63
2022-10-20T04:01:21.614Z,8.30
2022-10-20T04:03:48.009Z,7.90
2022-10-20T04:06:33.019Z,6.55
2022-10-20T04:09:10.371Z,7.35
2022-10-20T04:11:37.276Z,10.60
2022-10-20T04:14:24.011Z,6.68
2022-10-20T04:16:52.460Z,6.43
2022-10-20T04:19:18.889Z,5.68
2022-10-20T04:21:46.296Z,6.88
2022-10-20T04:24:40.073Z,9.27
2022-10-20T04:32:00.621Z,8.10
2022-10-20T04:35:18.292Z,8.32
2022-10-20T04:37:45.854Z,6.97
2022-10-20T04:40:16.251Z,7.72
2022-10-20T04:42:48.888Z,8.13
2022-10-20T04:45:15.463Z,7.37
2022-10-20T04:47:41.965Z,8.27
2022-10-20T04:50:08.911Z,7.43
2022-10-20T04:52:35.489Z,7.90
2022-10-20T04:55:05.536Z,6.03
2022-10-20T04:57:31.943Z,6.97
2022-10-20T04:59:58.297Z,7.05
2022-10-20T05:02:36.880Z,9.35
2022-10-20T05:05:14.920Z,9.95
2022-10-20T05:07:42.377Z,8.23
2022-10-20T05:10:09.297Z,6.80
2022-10-20T05:12:36.320Z,6.18
2022-10-20T05:15:03.809Z,7.95
2022-10-20T05:17:30.301Z,8.20
2022-10-20T05:20:06.445Z,8.88
2022-10-20T05:22:33.057Z,7.97
2022-10-20T05:25:12.830Z,6.60
2022-10-20T05:27:46.083Z,6.95
2022-10-20T05:30:12.449Z,7.25
2022-10-20T05:32:39.876Z,7.72
2022-10-20T05:35:08.963Z,7.67
2022-10-20T05:37:35.502Z,9.27
2022-10-20T05:40:03.633Z,7.95
2022-10-20T05:42:35.955Z,6.75
2022-10-20T05:45:03.012Z,14.40
2022-10-20T05:47:29.415Z,7.37
2022-10-20T05:49:55.798Z,11.55
2022-10-20T05:52:22.306Z,8.55
2022-10-20T05:54:48.764Z,8.07
2022-10-20T05:57:15.238Z,9.38
2022-10-20T05:59:41.764Z,7.87
2022-10-20T06:02:10.761Z,8.98
2022-10-20T06:05:07.774Z,8.55
2022-10-20T06:07:34.297Z,10.57
2022-10-20T06:10:28.789Z,9.23
2022-10-20T06:13:12.766Z,11.30
2022-10-20T06:15:39.405Z,11.68
2022-10-20T06:18:15.917Z,9.07
2022-10-20T06:21:14.138Z,7.63
2022-10-20T06:24:07.232Z,9.15
2022-10-20T06:26:38.766Z,9.80
2022-10-20T06:29:11.593Z,9.30
2022-10-20T06:31:46.950Z,10.63
2022-10-20T06:34:28.780Z,9.48
2022-10-20T06:36:55.172Z,11.07
2022-10-20T06:39:23.676Z,10.60
2022-10-20T06:41:54.116Z,9.23
2022-10-20T06:44:23.473Z,8.27
2022-10-20T06:46:52.372Z,11.43
2022-10-20T06:49:27.107Z,11.57
2022-10-20T06:52:03.040Z,11.63
2022-10-20T06:54:29.673Z,13.65
2022-10-20T06:57:00.137Z,9.02
2022-10-20T06:59:26.553Z,9.13
2022-10-20T07:01:57.126Z,9.85
2022-10-20T07:04:29.862Z,13.03
2022-10-20T07:06:56.329Z,8.23
2022-10-20T07:09:36.295Z,13.43
2022-10-20T07:12:03.968Z,10.95
2022-10-20T07:14:32.475Z,8.35
2022-10-20T07:17:04.424Z,10.63
2022-10-20T07:19:31.007Z,9.25
2022-10-20T07:21:57.573Z,11.93
2022-10-20T07:24:25.389Z,8.48
2022-10-20T07:26:51.953Z,11.25
2022-10-20T07:29:20.005Z,10.20
2022-10-20T07:31:49.679Z,11.02
2022-10-20T07:34:26.763Z,10.40
2022-10-20T07:36:54.211Z,8.82
2022-10-20T07:39:20.978Z,10.48
2022-10-20T07:41:51.854Z,10.63
2022-10-20T07:44:18.476Z,9.85
2022-10-20T07:47:17.109Z,11.52
2022-10-20T07:49:44.905Z,10.77
2022-10-20T07:52:11.924Z,11.20
2022-10-20T07:54:38.382Z,9.83
2022-10-20T07:57:04.824Z,10.70
2022-10-20T07:59:34.665Z,8.32
2022-10-20T08:02:04.866Z,15.52
2022-10-20T08:04:31.667Z,13.13
2022-10-20T08:06:59.328Z,11.77
2022-10-20T08:09:26.845Z,10.45
2022-10-20T08:11:55.547Z,10.18
2022-10-20T08:14:23.184Z,10.77
2022-10-20T08:16:52.424Z,11.07
2022-10-20T08:19:31.807Z,12.40
2022-10-20T08:21:58.541Z,11.10
2022-10-20T08:24:25.001Z,12.25
2022-10-20T08:26:51.543Z,8.90
2022-10-20T08:29:22.806Z,10.43
2022-10-20T08:31:51.675Z,10.40
2022-10-20T08:34:18.128Z,9.60
2022-10-20T08:36:44.693Z,11.57
2022-10-20T08:39:11.662Z,11.63
2022-10-20T08:42:06.439Z,10.75
2022-10-20T08:44:35.666Z,8.80
2022-10-20T08:47:04.899Z,9.93
2022-10-20T08:49:45.241Z,8.00
2022-10-20T08:52:15.377Z,9.35
2022-10-20T08:54:42.058Z,11.15
2022-10-20T08:57:22.550Z,12.17
2022-10-20T08:59:52.484Z,9.63
2022-10-20T09:02:19.036Z,11.35
2022-10-20T09:04:53.390Z,9.65
2022-10-20T09:07:42.146Z,10.18
2022-10-20T09:13:21.128Z,11.95
2022-10-20T09:28:19.746Z,8.70
2022-10-20T09:30:57.929Z,8.85
2022-10-20T09:33:35.854Z,9.13
2022-10-20T09:36:31.794Z,10.23
2022-10-20T09:39:29.213Z,11.32
2022-10-20T09:44:36.010Z,9.52
2022-10-20T09:47:03.277Z,11.38
2022-10-20T09:49:35.497Z,11.73
2022-10-20T09:52:05.081Z,13.32
2022-10-20T09:54:32.963Z,10.30
2022-10-20T09:57:22.865Z,11.57
2022-10-20T09:59:51.662Z,9.00
2022-10-20T10:02:21.046Z,12.07
2022-10-20T10:04:49.655Z,11.32
2022-10-20T10:08:10.741Z,13.33
2022-10-20T11:39:16.891Z,15.95
2022-10-20T11:41:49.604Z,14.98
2022-10-20T11:44:50.248Z,12.93
2022-10-20T11:47:26.905Z,12.23
2022-10-20T11:50:11.607Z,13.30
2022-10-20T11:53:33.570Z,13.35
2022-10-20T11:56:43.029Z,12.15
2022-10-20T11:59:37.633Z,13.10
2022-10-20T12:02:40.934Z,12.87
2022-10-20T12:05:38.916Z,12.57
2022-10-20T12:08:43.767Z,14.18
2022-10-20T12:11:32.050Z,15.65
2022-10-20T12:14:03.685Z,16.48
2022-10-20T12:16:59.339Z,16.50
2022-10-20T12:19:31.397Z,15.77
2022-10-20T12:22:07.461Z,14.98
2022-10-20T12:25:03.094Z,15.23
2022-10-20T12:27:30.577Z,16.42
2022-10-20T12:30:22.167Z,16.53
2022-10-20T12:32:58.610Z,14.82
2022-10-20T12:35:25.005Z,13.48
2022-10-20T12:37:57.817Z,12.82
2022-10-20T12:40:33.949Z,17.38
2022-10-20T12:43:00.674Z,18.67
2022-10-20T12:45:40.369Z,17.55
2022-10-20T12:48:19.018Z,16.48
2022-10-20T12:50:47.113Z,17.33
2022-10-20T12:53:59.642Z,15.15
2022-10-20T12:56:31.977Z,15.43
2022-10-20T13:03:18.439Z,15.27
2022-10-20T13:05:48.338Z,16.50
2022-10-20T13:08:24.234Z,18.25
2022-10-20T13:10:53.882Z,16.80
2022-10-20T13:14:00.154Z,16.20
2022-10-20T13:16:31.554Z,17.20
2022-10-20T13:18:58.936Z,15.10
2022-10-20T13:21:34.094Z,17.95
2022-10-20T13:24:45.108Z,15.83
2022-10-20T13:27:11.983Z,15.65
2022-10-20T13:29:43.689Z,14.10
2022-10-20T13:32:47.783Z,16.95
2022-10-20T13:35:48.878Z,16.63
2022-10-20T13:39:08.438Z,18.43
2022-10-20T13:42:09.572Z,17.30
2022-10-20T13:44:53.072Z,14.27
2022-10-20T13:48:02.897Z,18.35
2022-10-20T13:50:57.354Z,15.20
2022-10-20T13:54:32.115Z,16.50
2022-10-20T14:00:38.919Z,17.90
2022-10-20T20:04:12.397Z,22.23
2022-10-20T20:06:39.261Z,16.45
2022-10-20T20:09:08.460Z,16.30
2022-10-20T20:11:37.434Z,15.65
2022-10-20T20:14:18.996Z,19.33
2022-10-20T20:16:47.647Z,13.60
2022-10-20T20:19:15.177Z,13.68
2022-10-20T20:21:42.752Z,15.23
2022-10-20T20:24:13.193Z,14.68
2022-10-20T20:26:48.081Z,15.37
2022-10-20T20:29:14.614Z,14.65
2022-10-20T20:31:42.229Z,13.82
2022-10-20T20:34:08.678Z,19.13
2022-10-20T20:36:35.258Z,14.95
2022-10-20T20:39:02.141Z,14.03
2022-10-20T20:41:30.311Z,15.77
2022-10-20T20:44:08.545Z,15.05
2022-10-20T20:46:36.191Z,12.13
2022-10-20T20:49:02.777Z,14.40
2022-10-20T20:51:33.342Z,13.47
2022-10-20T20:54:00.953Z,15.48
2022-10-20T20:57:02.445Z,12.82
2022-10-20T20:59:28.896Z,12.25
2022-10-20T21:01:55.385Z,14.25
2022-10-20T21:04:23.126Z,13.67
2022-10-20T21:07:04.691Z,11.43
2022-10-20T21:09:48.275Z,12.18
2022-10-20T21:12:14.767Z,10.05
2022-10-20T21:14:41.173Z,12.80
2022-10-20T21:17:07.675Z,13.73
2022-10-20T21:19:34.167Z,12.43
2022-10-20T21:22:01.450Z,18.05
2022-10-20T21:24:28.159Z,11.75
2022-10-20T21:26:55.786Z,14.43
2022-10-20T21:29:30.736Z,13.70
2022-10-20T21:32:14.720Z,18.42
2022-10-20T21:34:50.436Z,13.77
2022-10-20T21:37:16.899Z,13.52
2022-10-20T21:39:43.485Z,13.93
2022-10-20T21:42:10.069Z,12.70
2022-10-20T21:44:36.517Z,16.63
2022-10-20T21:47:03.274Z,13.50
2022-10-20T21:49:29.832Z,13.35
2022-10-20T21:51:57.597Z,12.90
2022-10-20T21:54:27.542Z,15.20
2022-10-20T21:56:57.385Z,11.25
2022-10-20T21:59:27.750Z,16.77
2022-10-20T22:02:01.733Z,9.68
2022-10-20T22:04:29.640Z,12.10
2022-10-20T22:06:56.916Z,13.67
2022-10-20T22:09:25.796Z,9.57
2022-10-20T22:11:55.366Z,13.85
2022-10-20T22:14:22.660Z,11.27
2022-10-20T22:16:49.226Z,12.00
2022-10-20T22:19:19.058Z,12.10
2022-10-20T22:21:52.583Z,13.02
2022-10-20T22:24:20.507Z,14.75
2022-10-20T22:27:15.432Z,14.77
2022-10-20T22:29:56.673Z,13.73
2022-10-20T22:32:23.903Z,14.07
2022-10-20T22:34:53.416Z,12.30
2022-10-20T22:37:19.894Z,14.82
2022-10-20T22:39:48.396Z,13.73
2022-10-20T22:42:14.904Z,12.93
2022-10-20T22:44:48.163Z,13.70
2022-10-20T22:47:14.632Z,12.65
2022-10-20T22:49:41.021Z,11.73
2022-10-20T22:52:17.702Z,14.05
2022-10-20T22:54:48.112Z,12.93
2022-10-20T22:57:14.558Z,11.67
2022-10-20T22:59:44.153Z,12.88
2022-10-20T23:02:15.727Z,13.55
2022-10-20T23:04:42.195Z,14.02
2022-10-20T23:07:08.688Z,13.68
2022-10-20T23:09:35.160Z,12.77
2022-10-20T23:12:01.578Z,13.25
2022-10-20T23:14:28.006Z,14.18
2022-10-20T23:16:56.595Z,13.77
2022-10-20T23:19:23.036Z,16.42
2022-10-20T23:21:57.804Z,14.17
2022-10-20T23:24:24.283Z,15.80
2022-10-20T23:27:11.339Z,16.95
2022-10-20T23:29:38.792Z,15.27
2022-10-20T23:32:17.541Z,16.85
2022-10-20T23:34:43.950Z,13.43
2022-10-20T23:37:13.512Z,14.13
2022-10-20T23:39:39.987Z,14.00
2022-10-20T23:42:07.449Z,15.80
2022-10-20T23:44:34.262Z,13.30
2022-10-20T23:47:01.005Z,13.80
2022-10-20T23:49:29.581Z,16.23
2022-10-20T23:51:56.338Z,14.20
2022-10-20T23:54:22.859Z,15.27
2022-10-20T23:56:49.323Z,17.63
2022-10-20T23:59:15.852Z,15.30
